createdAt,value
2019-03-20T00:27:57.296Z,32.97
2019-03-20T00:58:00.971Z,31.93
2019-03-20T01:28:04.753Z,33.60
2019-03-20T01:58:10.405Z,36.23
2019-03-20T02:28:14.148Z,35.63
2019-03-20T02:58:17.747Z,34.60
2019-03-20T03:28:21.346Z,34.87
2019-03-20T03:58:24.982Z,30.73
2019-03-20T04:28:28.704Z,28.77
2019-03-20T04:58:32.273Z,42.83
2019-03-20T05:28:35.876Z,29.30
2019-03-20T05:58:39.464Z,34.88
2019-03-20T06:28:43.150Z,45.12
2019-03-20T06:58:46.736Z,40.63
2019-03-20T07:28:50.330Z,40.20
2019-03-20T07:58:53.964Z,41.70
2019-03-20T08:28:57.540Z,40.27
2019-03-20T08:59:01.172Z,39.93
2019-03-20T09:29:04.835Z,41.60
2019-03-20T09:59:08.421Z,38.40
2019-03-20T10:29:12.012Z,41.47
2019-03-20T10:59:15.631Z,42.40
2019-03-20T11:29:21.805Z,42.77
2019-03-20T11:59:24.660Z,43.57
2019-03-20T12:29:28.270Z,45.55
2019-03-20T12:59:31.913Z,44.83
2019-03-20T13:29:35.677Z,43.87
2019-03-20T13:59:39.396Z,44.95
2019-03-20T14:29:42.989Z,44.42
2019-03-20T14:59:46.580Z,43.60
2019-03-20T15:29:50.150Z,43.97
2019-03-20T15:59:53.758Z,43.67
2019-03-20T16:29:59.356Z,43.37
2019-03-20T17:00:02.882Z,41.67
2019-03-20T17:30:09.879Z,44.83
2019-03-20T18:00:20.680Z,44.83
2019-03-20T18:30:32.151Z,44.97
2019-03-20T19:00:35.964Z,46.08
2019-03-20T19:30:39.750Z,46.45
2019-03-20T20:00:44.453Z,59.98
2019-03-20T20:30:47.985Z,52.43
2019-03-20T21:00:52.796Z,56.18
2019-03-20T21:30:59.481Z,44.00
2019-03-20T22:01:12.218Z,39.03
2019-03-20T22:31:15.827Z,41.92
2019-03-20T23:01:34.157Z,43.10
